Time;durP1;ratioP1;P1;durP2;ratioP2;P2;SDS_P1;SDS_P2;PMS_P1;PMS_P2;Temp;Humidity;BMP_temperature;BMP_pressure;BME280_temperature;BME280_humidity;BME280_pressure;Samples;Min_cycle;Max_cycle;Signal;HPM_P1;HPM_P2
2022/01/26 00:05:52;;;;;;;40.28;22.20;;;20.60;56.20;;;;;;5056092;28;20113;-75
2022/01/26 00:08:23;;;;;;;35.40;21.33;;;20.50;56.20;;;;;;5056161;28;20046;-75
2022/01/26 00:10:50;;;;;;;37.22;22.92;;;20.60;56.20;;;;;;5056955;28;20053;-75
2022/01/26 00:13:16;;;;;;;31.52;20.73;;;20.40;56.10;;;;;;5060340;28;20097;-75
2022/01/26 00:15:43;;;;;;;34.00;22.13;;;20.50;56.40;;;;;;5057230;28;20041;-75
2022/01/26 00:18:09;;;;;;;37.15;23.83;;;20.50;56.50;;;;;;5060041;28;20065;-75
2022/01/26 00:20:50;;;;;;;36.22;24.92;;;20.50;56.60;;;;;;5059799;28;20056;-75
2022/01/26 00:26:24;;;;;;;38.22;22.25;;;20.50;56.30;;;;;;5059044;28;20037;-75
2022/01/26 00:39:58;;;;;;;32.90;20.83;;;20.70;56.10;;;;;;5059882;28;20079;-75
2022/01/26 00:42:26;;;;;;;28.08;20.08;;;20.70;56.10;;;;;;5059706;28;20041;-75
2022/01/26 00:44:52;;;;;;;30.35;20.40;;;20.70;56.10;;;;;;5059483;28;20037;-75
2022/01/26 00:47:18;;;;;;;29.10;20.02;;;20.70;56.00;;;;;;5059536;28;20041;-75
2022/01/26 00:49:44;;;;;;;30.02;18.80;;;20.60;56.00;;;;;;5059424;28;20033;-75
2022/01/26 00:52:20;;;;;;;29.35;19.00;;;20.60;56.20;;;;;;5042127;28;20037;-75
2022/01/26 00:54:46;;;;;;;33.35;20.50;;;20.50;56.40;;;;;;5059217;28;20105;-75
2022/01/26 00:57:14;;;;;;;28.50;18.73;;;20.60;56.50;;;;;;5058608;28;20041;-75
2022/01/26 00:59:40;;;;;;;29.27;18.55;;;20.50;56.50;;;;;;5059422;28;20041;-75
2022/01/26 01:02:07;;;;;;;30.77;18.23;;;20.50;56.70;;;;;;5041467;28;20072;-75
2022/01/26 01:04:33;;;;;;;30.90;18.23;;;20.50;56.90;;;;;;5042431;28;20484;-75
2022/01/26 01:07:02;;;;;;;27.17;16.83;;;20.40;57.00;;;;;;5058567;28;20041;-75
2022/01/26 01:09:34;;;;;;;27.15;18.15;;;20.50;57.10;;;;;;5058970;28;20049;-75
2022/01/26 01:12:02;;;;;;;31.75;17.35;;;20.50;57.30;;;;;;5058151;28;20046;-75
2022/01/26 01:14:31;;;;;;;23.52;16.35;;;20.40;57.20;;;;;;5058331;28;20029;-75
2022/01/26 01:17:02;;;;;;;25.92;16.40;;;20.50;57.50;;;;;;5058637;28;20045;-75
2022/01/26 01:19:37;;;;;;;24.10;15.88;;;20.50;57.50;;;;;;5058423;28;20038;-75
2022/01/26 01:22:29;;;;;;;23.17;14.75;;;20.40;57.20;;;;;;5057135;28;20045;-75
2022/01/26 01:25:46;;;;;;;28.52;15.35;;;20.50;57.20;;;;;;5041348;28;20052;-75
2022/01/26 01:30:31;;;;;;;17.13;11.50;;;20.50;57.20;;;;;;5058300;28;20093;-75
2022/01/26 01:33:06;;;;;;;15.73;12.45;;;20.60;57.30;;;;;;5057936;28;20045;-75
2022/01/26 01:35:37;;;;;;;21.23;12.52;;;20.40;57.30;;;;;;5057165;28;20048;-75
2022/01/26 01:38:11;;;;;;;20.27;12.57;;;20.60;57.40;;;;;;5058561;28;20663;-75
2022/01/26 01:40:40;;;;;;;22.30;13.05;;;20.50;57.30;;;;;;5058426;28;20041;-76
2022/01/26 01:43:07;;;;;;;17.30;11.45;;;20.60;57.10;;;;;;5058207;28;20451;-75
2022/01/26 01:45:42;;;;;;;20.63;12.70;;;20.70;57.20;;;;;;5057944;28;20064;-75
2022/01/26 01:48:09;;;;;;;23.40;14.00;;;20.60;56.80;;;;;;5058478;28;20049;-75
2022/01/26 01:50:41;;;;;;;19.73;13.30;;;20.70;56.80;;;;;;5057691;28;20101;-75
2022/01/26 01:53:10;;;;;;;20.75;12.02;;;20.80;56.70;;;;;;5058425;28;20047;-76
2022/01/26 01:55:40;;;;;;;18.33;11.52;;;20.70;56.70;;;;;;5058295;28;20032;-75
2022/01/26 01:58:07;;;;;;;17.23;10.90;;;20.70;56.50;;;;;;5057602;28;20034;-75
2022/01/26 02:00:34;;;;;;;18.60;11.98;;;20.70;56.50;;;;;;5058029;28;20044;-75
2022/01/26 02:03:00;;;;;;;19.42;13.48;;;20.70;56.40;;;;;;5058204;28;20096;-75
2022/01/26 02:05:26;;;;;;;19.70;11.75;;;20.70;56.40;;;;;;5057413;28;20024;-75
2022/01/26 02:07:53;;;;;;;19.60;12.82;;;20.70;56.60;;;;;;5058268;28;20034;-75
2022/01/26 02:10:22;;;;;;;17.95;12.15;;;20.70;56.80;;;;;;5058055;28;20049;-75
2022/01/26 02:12:52;;;;;;;19.10;11.38;;;20.60;56.90;;;;;;5057832;28;20032;-74
2022/01/26 02:15:23;;;;;;;15.00;10.40;;;20.60;57.30;;;;;;5057695;28;20097;-73
2022/01/26 02:56:30;;;;;;;13.70;8.48;;;20.70;58.00;;;;;;5056431;28;20037;-74
2022/01/26 02:59:25;;;;;;;10.85;8.40;;;20.70;58.00;;;;;;5057222;28;20041;-74
2022/01/26 03:04:39;;;;;;;9.93;8.02;;;20.70;57.80;;;;;;5039286;28;20045;-75
2022/01/26 03:07:14;;;;;;;11.52;7.93;;;20.70;57.90;;;;;;5055163;28;20041;-75
2022/01/26 03:10:30;;;;;;;11.73;8.00;;;20.80;57.90;;;;;;5055817;28;20057;-74
2022/01/26 03:15:31;;;;;;;10.63;7.35;;;20.70;58.10;;;;;;5051575;28;20044;-74
2022/01/26 03:20:23;;;;;;;10.23;8.20;;;20.60;58.30;;;;;;5044040;28;20032;-74
2022/01/26 03:28:23;;;;;;;11.10;7.07;;;20.60;58.90;;;;;;5056520;28;20045;-74
2022/01/26 03:36:21;;;;;;;10.40;7.20;;;20.50;59.10;;;;;;5055959;28;20041;-74
2022/01/26 03:38:56;;;;;;;8.68;7.25;;;20.50;59.30;;;;;;5056418;28;20056;-74
2022/01/26 03:41:43;;;;;;;14.07;7.20;;;20.50;59.10;;;;;;5056687;28;20044;-74
2022/01/26 03:44:10;;;;;;;9.85;6.90;;;20.60;59.10;;;;;;5056424;28;20045;-74
2022/01/26 03:46:38;;;;;;;10.55;7.25;;;20.60;58.70;;;;;;5055094;28;20044;-74
2022/01/26 03:49:06;;;;;;;10.95;7.18;;;20.50;58.60;;;;;;5056340;28;20059;-74
2022/01/26 03:51:32;;;;;;;10.30;7.10;;;20.60;58.60;;;;;;5056211;28;20049;-74
2022/01/26 03:53:58;;;;;;;10.20;6.95;;;20.60;58.40;;;;;;5055526;28;20045;-76
2022/01/26 03:56:25;;;;;;;10.80;6.70;;;20.50;58.20;;;;;;5055547;28;20052;-74
2022/01/26 03:58:51;;;;;;;10.07;7.18;;;20.60;58.20;;;;;;5039068;28;20084;-74
2022/01/26 04:01:18;;;;;;;8.13;6.35;;;20.60;58.20;;;;;;5054917;28;20044;-74
2022/01/26 04:03:44;;;;;;;8.35;6.50;;;20.70;58.20;;;;;;5054985;28;20049;-74
2022/01/26 04:06:11;;;;;;;8.57;6.55;;;20.70;58.20;;;;;;5055064;28;20190;-74
2022/01/26 04:08:40;;;;;;;11.48;7.25;;;20.80;58.10;;;;;;5055890;28;20025;-73
2022/01/26 04:11:23;;;;;;;10.20;6.53;;;20.70;58.10;;;;;;5056186;28;20120;-74
2022/01/26 04:13:50;;;;;;;11.02;7.22;;;20.70;58.20;;;;;;5056224;28;20048;-74
2022/01/26 04:16:18;;;;;;;12.32;7.22;;;20.70;58.40;;;;;;5055612;28;20037;-74
2022/01/26 04:18:44;;;;;;;8.57;6.93;;;20.60;58.50;;;;;;5056022;28;20071;-74
2022/01/26 04:24:03;;;;;;;10.75;7.20;;;20.60;59.10;;;;;;5056112;28;20044;-74
2022/01/26 04:26:42;;;;;;;9.43;6.70;;;20.50;59.30;;;;;;5055421;28;20037;-74
2022/01/26 04:29:13;;;;;;;8.25;6.70;;;20.60;59.30;;;;;;5054925;28;20038;-74
2022/01/26 04:31:40;;;;;;;9.05;6.05;;;20.50;59.40;;;;;;5055707;28;20072;-74
2022/01/26 04:34:06;;;;;;;9.88;6.28;;;20.50;59.80;;;;;;5054949;28;20026;-74
2022/01/26 04:36:39;;;;;;;7.85;6.03;;;20.40;60.20;;;;;;5055438;28;20041;-74
2022/01/26 04:39:11;;;;;;;7.57;4.97;;;20.60;60.10;;;;;;5056006;28;20042;-74
2022/01/26 04:41:46;;;;;;;8.25;5.20;;;20.50;59.50;;;;;;5055681;28;20105;-74
2022/01/26 04:44:24;;;;;;;8.48;5.50;;;20.60;59.10;;;;;;5055957;28;20079;-74
2022/01/26 04:46:53;;;;;;;6.13;4.88;;;20.60;59.20;;;;;;5055377;28;20113;-74
2022/01/26 04:49:19;;;;;;;9.07;5.32;;;20.60;58.80;;;;;;5045034;28;20025;-74
2022/01/26 04:51:45;;;;;;;6.88;4.95;;;20.60;58.80;;;;;;5019531;28;20040;-74
2022/01/26 04:54:12;;;;;;;6.78;5.28;;;20.60;59.00;;;;;;5054769;28;20079;-74
2022/01/26 04:56:38;;;;;;;6.65;5.28;;;20.70;59.30;;;;;;5056001;28;20046;-74
2022/01/26 04:59:04;;;;;;;7.20;5.03;;;20.60;59.30;;;;;;5059246;28;20033;-74
2022/01/26 05:01:31;;;;;;;9.20;5.63;;;20.50;59.50;;;;;;5058150;28;20072;-74
2022/01/26 05:03:57;;;;;;;8.48;5.45;;;20.60;59.50;;;;;;5041021;28;20037;-74
2022/01/26 05:06:24;;;;;;;6.80;5.10;;;20.60;59.40;;;;;;5058264;28;20037;-73
2022/01/26 05:08:50;;;;;;;8.70;5.70;;;20.60;59.20;;;;;;5041352;28;20100;-74
2022/01/26 05:11:27;;;;;;;9.32;5.45;;;20.60;59.00;;;;;;5058681;28;20037;-74
2022/01/26 05:13:54;;;;;;;8.77;5.18;;;20.70;59.20;;;;;;5058716;28;20043;-74
2022/01/26 05:16:21;;;;;;;8.95;5.78;;;20.80;58.80;;;;;;5057608;28;20037;-74
2022/01/26 05:18:47;;;;;;;8.18;5.85;;;20.80;58.40;;;;;;5041203;28;20043;-74
2022/01/26 05:21:13;;;;;;;7.68;5.72;;;20.90;58.30;;;;;;5058152;28;20071;-74
2022/01/26 05:23:39;;;;;;;8.70;6.30;;;20.80;58.00;;;;;;5058193;28;20041;-74
2022/01/26 05:26:05;;;;;;;9.88;6.28;;;20.90;58.10;;;;;;5057394;28;20049;-74
2022/01/26 05:28:31;;;;;;;7.43;5.47;;;20.90;58.10;;;;;;5058297;28;20037;-74
2022/01/26 05:30:57;;;;;;;6.05;4.97;;;20.80;58.10;;;;;;5057916;28;20037;-74
2022/01/26 05:33:23;;;;;;;5.50;4.28;;;20.70;58.60;;;;;;5055246;28;20048;-74
2022/01/26 05:35:51;;;;;;;5.97;4.90;;;20.70;58.60;;;;;;5058051;28;20049;-74
2022/01/26 05:38:17;;;;;;;5.93;3.92;;;20.70;58.90;;;;;;5058203;28;20056;-74
2022/01/26 05:40:43;;;;;;;7.05;3.85;;;20.70;59.20;;;;;;5042170;28;20048;-72
2022/01/26 05:43:09;;;;;;;5.00;3.67;;;20.70;59.40;;;;;;5038085;28;20046;-74
2022/01/26 05:45:38;;;;;;;3.90;3.33;;;20.60;59.80;;;;;;5037751;28;20046;-74
2022/01/26 05:48:09;;;;;;;3.97;3.13;;;20.60;59.80;;;;;;5042208;28;20048;-74
2022/01/26 05:50:37;;;;;;;3.90;3.03;;;20.50;59.70;;;;;;5057888;28;20045;-74
2022/01/26 05:53:04;;;;;;;4.20;3.10;;;20.50;59.80;;;;;;5043151;28;20045;-74
2022/01/26 05:55:31;;;;;;;4.90;3.30;;;20.50;60.20;;;;;;5056713;28;20061;-75
2022/01/26 05:57:57;;;;;;;3.72;3.35;;;20.50;59.90;;;;;;5057621;28;20049;-74
2022/01/26 06:00:23;;;;;;;3.70;2.67;;;20.60;60.00;;;;;;5057557;28;20080;-74
2022/01/26 06:02:49;;;;;;;5.18;3.08;;;20.50;60.00;;;;;;5057380;28;20030;-74
2022/01/26 06:05:15;;;;;;;4.32;3.10;;;20.50;59.60;;;;;;5056887;28;20049;-74
2022/01/26 06:07:41;;;;;;;5.53;3.50;;;20.60;59.50;;;;;;5054517;28;20059;-74
2022/01/26 06:10:07;;;;;;;3.63;3.25;;;20.70;59.40;;;;;;5050338;28;20045;-75
2022/01/26 06:12:34;;;;;;;3.03;2.22;;;20.80;58.90;;;;;;5045697;28;20040;-74
2022/01/26 06:15:04;;;;;;;2.58;2.33;;;20.80;50.10;;;;;;5050748;28;20109;-71
2022/01/26 06:17:31;;;;;;;3.20;2.42;;;20.70;47.00;;;;;;5045764;28;20075;-72
2022/01/26 06:19:57;;;;;;;3.20;2.00;;;20.70;44.10;;;;;;5046591;28;20048;-72
2022/01/26 06:22:23;;;;;;;3.05;2.28;;;20.60;43.70;;;;;;5052051;28;20053;-71
2022/01/26 06:24:49;;;;;;;2.80;2.45;;;20.70;43.20;;;;;;5049122;28;20037;-71
2022/01/26 06:27:15;;;;;;;3.88;3.30;;;20.80;43.50;;;;;;5046116;28;20033;-71
2022/01/26 06:29:41;;;;;;;8.88;2.67;;;20.90;41.70;;;;;;5050953;28;20059;-72
2022/01/26 06:32:07;;;;;;;4.00;2.38;;;20.90;41.90;;;;;;5054711;28;20105;-69
2022/01/26 06:34:38;;;;;;;4.45;3.75;;;21.10;41.30;;;;;;5056935;28;20105;-73
2022/01/26 06:37:06;;;;;;;4.05;3.15;;;21.30;40.60;;;;;;5054656;28;20071;-69
2022/01/26 06:39:32;;;;;;;6.25;3.42;;;21.20;39.70;;;;;;5050695;28;20159;-71
2022/01/26 06:41:59;;;;;;;2.75;2.45;;;21.20;40.70;;;;;;5053172;28;20052;-71
2022/01/26 06:44:32;;;;;;;4.75;3.83;;;21.30;40.30;;;;;;5049153;28;20042;-71
2022/01/26 06:49:35;;;;;;;6.10;3.75;;;21.30;40.10;;;;;;5049438;28;20037;-70
2022/01/26 06:52:05;;;;;;;5.50;3.83;;;21.40;40.40;;;;;;5047522;28;20044;-71
2022/01/26 06:54:31;;;;;;;19.70;6.10;;;21.30;40.70;;;;;;5048478;28;20041;-70
2022/01/26 06:56:57;;;;;;;7.07;5.43;;;21.40;38.30;;;;;;5047465;28;20051;-69
2022/01/26 06:59:24;;;;;;;9.52;5.93;;;21.20;38.80;;;;;;5045848;28;20038;-69
2022/01/26 07:01:51;;;;;;;7.85;6.22;;;21.30;37.20;;;;;;5050880;28;20037;-69
2022/01/26 07:04:17;;;;;;;5.63;3.55;;;21.30;35.70;;;;;;5050688;28;20089;-70
2022/01/26 07:06:44;;;;;;;5.50;4.40;;;21.20;36.50;;;;;;5055153;28;20172;-70
2022/01/26 07:09:10;;;;;;;6.63;4.70;;;21.10;51.40;;;;;;5055756;28;20045;-70
2022/01/26 07:11:36;;;;;;;8.25;4.95;;;21.40;55.40;;;;;;5049382;28;20042;-69
2022/01/26 07:14:07;;;;;;;6.68;4.95;;;21.40;57.20;;;;;;5040983;28;20042;-71
2022/01/26 07:22:03;;;;;;;7.45;4.93;;;20.90;56.50;;;;;;5039081;28;20034;-73
2022/01/26 07:24:29;;;;;;;8.27;4.72;;;20.60;57.30;;;;;;5036173;28;20046;-73
2022/01/26 07:26:56;;;;;;;5.88;4.50;;;20.60;60.50;;;;;;5039926;28;20042;-71
2022/01/26 07:29:23;;;;;;;7.65;4.75;;;20.60;60.00;;;;;;5054989;28;20035;-70
2022/01/26 07:31:50;;;;;;;8.32;4.93;;;20.60;59.40;;;;;;5048115;28;20049;-71
2022/01/26 07:34:19;;;;;;;7.18;4.90;;;20.60;60.50;;;;;;5055819;28;20038;-72
2022/01/26 07:36:49;;;;;;;6.75;5.00;;;20.60;60.60;;;;;;5054131;28;20044;-71
2022/01/26 07:39:18;;;;;;;6.95;5.20;;;20.70;61.10;;;;;;5047712;28;20048;-72
2022/01/26 07:41:44;;;;;;;5.80;5.20;;;20.60;61.60;;;;;;5055697;28;20052;-74
2022/01/26 07:44:10;;;;;;;6.15;4.32;;;20.60;62.00;;;;;;5053910;28;20041;-73
2022/01/26 07:46:37;;;;;;;6.75;4.93;;;20.80;62.40;;;;;;5050196;28;20057;-74
2022/01/26 07:49:03;;;;;;;7.90;5.13;;;20.70;62.50;;;;;;5055634;28;20037;-75
2022/01/26 07:51:30;;;;;;;7.45;6.43;;;20.70;62.50;;;;;;5055361;28;20041;-73
2022/01/26 07:53:56;;;;;;;7.95;4.90;;;20.70;61.20;;;;;;5053425;28;20041;-71
2022/01/26 07:56:23;;;;;;;8.45;6.30;;;20.70;62.50;;;;;;5051491;28;20080;-70
2022/01/26 07:58:49;;;;;;;7.72;5.55;;;20.80;62.20;;;;;;5043848;28;20036;-69
2022/01/26 08:01:15;;;;;;;6.63;5.00;;;20.70;61.70;;;;;;5036647;28;20045;-72
2022/01/26 08:03:41;;;;;;;6.63;5.13;;;20.70;59.60;;;;;;5054491;28;20045;-71
2022/01/26 08:06:14;;;;;;;6.80;5.70;;;20.70;61.40;;;;;;5050532;28;20072;-71
2022/01/26 08:08:40;;;;;;;7.93;4.97;;;20.70;57.70;;;;;;5047420;28;20093;-73
2022/01/26 08:11:06;;;;;;;8.60;5.32;;;20.80;61.10;;;;;;5043771;28;20052;-74
2022/01/26 08:13:32;;;;;;;6.38;5.25;;;20.70;60.80;;;;;;5055313;28;20072;-72
2022/01/26 08:15:58;;;;;;;9.02;5.50;;;20.70;60.70;;;;;;5038170;28;20061;-72
2022/01/26 08:18:25;;;;;;;8.45;5.47;;;20.60;60.50;;;;;;5048629;28;20049;-72
2022/01/26 08:20:52;;;;;;;7.75;5.70;;;20.60;60.70;;;;;;5022629;28;20050;-74
2022/01/26 08:23:20;;;;;;;3.15;2.10;;;20.80;58.90;;;;;;5040842;28;20049;-71
2022/01/26 08:25:47;;;;;;;1.73;1.20;;;20.60;56.80;;;;;;5040618;28;20061;-71
2022/01/26 08:28:20;;;;;;;2.40;1.88;;;21.00;59.90;;;;;;5051728;28;20097;-70
2022/01/26 08:30:47;;;;;;;3.70;1.88;;;21.30;56.00;;;;;;5038118;28;20076;-72
2022/01/26 08:33:13;;;;;;;0.43;0.43;;;21.40;52.00;;;;;;5043580;28;20045;-71
2022/01/26 08:35:41;;;;;;;4.80;3.22;;;21.70;49.40;;;;;;5040385;28;20038;-72
2022/01/26 08:38:07;;;;;;;4.97;3.22;;;21.80;48.20;;;;;;5046359;28;20116;-71
2022/01/26 08:40:33;;;;;;;2.83;2.63;;;21.80;48.50;;;;;;5043178;28;20123;-72
2022/01/26 08:43:00;;;;;;;2.95;1.90;;;21.80;46.70;;;;;;5054139;28;20037;-71
2022/01/26 08:45:27;;;;;;;4.68;2.67;;;21.70;45.90;;;;;;5055077;28;20052;-71
2022/01/26 08:47:53;;;;;;;1.90;1.70;;;21.80;47.60;;;;;;5056489;28;20030;-72
2022/01/26 08:50:20;;;;;;;0.73;0.65;;;21.80;45.10;;;;;;5039054;28;20808;-72
2022/01/26 08:52:47;;;;;;;6.90;6.20;;;21.90;44.00;;;;;;5054887;28;20041;-71
2022/01/26 08:55:13;;;;;;;8.60;5.70;;;21.80;40.00;;;;;;5057555;28;20059;-70
2022/01/26 08:57:39;;;;;;;6.50;5.60;;;21.70;39.40;;;;;;5049186;28;20101;-70
2022/01/26 09:00:08;;;;;;;7.28;5.78;;;21.40;41.80;;;;;;5051366;28;20077;-69
2022/01/26 09:02:35;;;;;;;8.90;6.25;;;21.20;42.60;;;;;;5058341;28;20041;-70
2022/01/26 09:05:04;;;;;;;7.00;6.15;;;21.00;41.80;;;;;;5055122;28;20037;-70
2022/01/26 09:07:31;;;;;;;8.00;5.80;;;20.70;43.40;;;;;;5056171;28;20056;-71
2022/01/26 09:10:00;;;;;;;8.35;6.13;;;20.70;45.00;;;;;;5046635;28;20117;-71
2022/01/26 09:12:27;;;;;;;9.15;5.82;;;20.70;46.70;;;;;;5045600;28;20077;-71
2022/01/26 09:14:53;;;;;;;6.90;5.95;;;20.80;46.70;;;;;;5054464;28;20041;-71
2022/01/26 09:17:20;;;;;;;8.50;6.75;;;20.70;47.50;;;;;;5056891;28;20049;-70
2022/01/26 09:19:48;;;;;;;8.70;6.43;;;20.60;46.50;;;;;;5057630;28;20065;-71
2022/01/26 09:22:16;;;;;;;10.32;6.93;;;20.50;47.10;;;;;;5056773;28;20067;-71
2022/01/26 09:24:44;;;;;;;9.38;6.35;;;20.40;47.50;;;;;;5052570;28;20041;-70
2022/01/26 09:27:14;;;;;;;8.95;6.38;;;20.40;47.30;;;;;;5050833;28;20033;-70
2022/01/26 09:29:42;;;;;;;9.10;6.35;;;20.40;46.50;;;;;;5054479;28;20042;-71
2022/01/26 09:32:08;;;;;;;9.40;6.65;;;20.40;49.10;;;;;;5056593;28;20040;-71
2022/01/26 09:34:35;;;;;;;11.18;6.25;;;20.40;48.70;;;;;;5043440;28;20041;-71
2022/01/26 09:37:10;;;;;;;13.50;7.07;;;20.50;48.80;;;;;;5046401;28;20052;-71
2022/01/26 09:39:41;;;;;;;7.40;4.60;;;20.40;49.70;;;;;;5040527;28;20049;-71
2022/01/26 09:42:09;;;;;;;8.27;5.40;;;20.40;49.80;;;;;;5057358;28;20037;-71
2022/01/26 09:44:35;;;;;;;6.57;5.25;;;20.50;49.60;;;;;;5056584;28;20041;-72
2022/01/26 09:47:03;;;;;;;11.43;5.85;;;20.50;49.80;;;;;;5057360;28;20032;-72
2022/01/26 09:49:34;;;;;;;7.80;5.70;;;20.50;50.00;;;;;;5038862;28;20069;-71
2022/01/26 09:52:13;;;;;;;8.52;5.35;;;20.50;50.30;;;;;;5037903;28;20042;-71
2022/01/26 09:54:42;;;;;;;7.32;5.72;;;20.50;51.90;;;;;;5042764;28;20037;-72
2022/01/26 09:57:09;;;;;;;9.82;5.07;;;20.70;51.60;;;;;;5057427;28;20068;-71
2022/01/26 09:59:35;;;;;;;10.10;5.90;;;20.80;51.70;;;;;;5057869;28;20041;-74
2022/01/26 10:02:02;;;;;;;8.27;4.95;;;21.00;50.40;;;;;;5051837;28;20101;-71
2022/01/26 10:04:35;;;;;;;6.05;3.47;;;21.00;43.60;;;;;;5049375;28;20045;-73
2022/01/26 10:07:13;;;;;;;5.78;3.40;;;21.00;41.00;;;;;;5050861;28;20052;-73
2022/01/26 10:17:44;;;;;;;8.00;6.05;;;21.40;37.10;;;;;;5051831;28;20050;-71
2022/01/26 10:20:15;;;;;;;2.13;2.03;;;21.40;36.50;;;;;;5049580;28;20049;-71
2022/01/26 10:22:42;;;;;;;8.65;4.55;;;21.50;39.90;;;;;;5047930;28;20081;-72
2022/01/26 10:25:15;;;;;;;7.25;4.15;;;21.40;35.40;;;;;;5050190;28;20140;-71
2022/01/26 10:27:48;;;;;;;6.22;4.18;;;21.40;33.30;;;;;;5037691;28;20034;-72
2022/01/26 10:30:17;;;;;;;8.27;3.45;;;21.30;34.70;;;;;;5051466;28;20068;-72
2022/01/26 10:32:47;;;;;;;6.63;4.78;;;21.40;36.20;;;;;;5052254;28;20041;-71
2022/01/26 10:35:16;;;;;;;4.88;4.10;;;21.30;34.90;;;;;;5043782;28;20045;-72
2022/01/26 10:37:55;;;;;;;6.43;3.83;;;21.30;34.90;;;;;;5049504;28;20096;-74
2022/01/26 10:40:24;;;;;;;4.15;3.55;;;21.40;35.30;;;;;;5055425;28;20049;-74
2022/01/26 10:42:56;;;;;;;6.65;4.40;;;21.40;38.20;;;;;;5052482;28;20026;-74
2022/01/26 10:53:48;;;;;;;6.60;4.80;;;21.40;34.00;;;;;;5055287;28;20052;-74
2022/01/26 10:56:14;;;;;;;6.50;4.75;;;21.40;34.70;;;;;;5038708;28;20048;-73
2022/01/26 10:58:41;;;;;;;7.57;4.70;;;21.40;34.20;;;;;;5048919;28;20033;-73
2022/01/26 11:01:07;;;;;;;6.07;4.43;;;21.30;34.90;;;;;;5049385;28;20052;-73
2022/01/26 11:03:34;;;;;;;5.50;4.47;;;21.40;37.60;;;;;;5052327;28;20065;-71
2022/01/26 11:06:06;;;;;;;5.85;4.13;;;21.50;39.80;;;;;;5056125;28;20052;-70
2022/01/26 11:08:39;;;;;;;7.10;5.43;;;21.50;35.90;;;;;;5049756;28;20476;-70
2022/01/26 11:11:05;;;;;;;5.70;4.30;;;21.40;37.50;;;;;;5046299;28;20050;-71
2022/01/26 11:13:39;;;;;;;5.75;4.10;;;21.70;43.40;;;;;;5055433;28;20045;-70
2022/01/26 11:16:13;;;;;;;5.70;3.13;;;22.00;37.10;;;;;;5055632;28;20045;-71
2022/01/26 11:18:53;;;;;;;3.03;2.53;;;22.00;37.00;;;;;;5053678;28;20033;-70
2022/01/26 11:21:35;;;;;;;4.20;3.35;;;22.00;35.90;;;;;;5054943;28;20045;-71
2022/01/26 11:24:18;;;;;;;2.90;2.22;;;21.80;34.30;;;;;;5049401;28;20037;-70
2022/01/26 11:26:47;;;;;;;3.97;2.92;;;21.60;33.80;;;;;;5039781;28;20037;-69
2022/01/26 11:29:16;;;;;;;3.05;2.65;;;21.50;33.90;;;;;;5049585;28;20067;-71
2022/01/26 11:31:42;;;;;;;7.03;4.32;;;21.40;34.60;;;;;;5050699;28;20048;-71
2022/01/26 11:34:10;;;;;;;6.72;4.55;;;21.50;41.30;;;;;;5048363;28;20044;-71
2022/01/26 11:36:42;;;;;;;6.38;4.47;;;21.50;46.80;;;;;;5036030;28;20052;-72
2022/01/26 11:45:07;;;;;;;7.10;5.38;;;21.80;50.30;;;;;;5055806;28;20048;-71
2022/01/26 11:47:40;;;;;;;6.75;4.80;;;21.90;50.60;;;;;;5052117;28;20113;-71
2022/01/26 11:50:19;;;;;;;7.07;4.25;;;21.70;49.30;;;;;;5055729;28;20041;-72
2022/01/26 11:53:00;;;;;;;6.70;4.45;;;21.70;50.60;;;;;;5055562;28;20113;-72
2022/01/26 11:55:38;;;;;;;6.10;4.50;;;21.70;51.10;;;;;;5055752;28;20041;-71
2022/01/26 11:58:15;;;;;;;7.20;4.85;;;21.70;50.50;;;;;;5037892;28;20041;-71
2022/01/26 12:00:57;;;;;;;5.78;4.22;;;21.80;51.60;;;;;;5046171;28;20032;-71
2022/01/26 12:03:27;;;;;;;5.50;4.25;;;21.60;51.90;;;;;;5049171;28;20109;-71
2022/01/26 12:05:56;;;;;;;6.55;4.32;;;21.80;52.60;;;;;;5048342;28;20026;-71
2022/01/26 12:08:28;;;;;;;5.65;4.00;;;21.70;52.80;;;;;;5043904;28;20694;-72
2022/01/26 12:10:54;;;;;;;5.38;3.70;;;21.80;52.70;;;;;;5046495;28;20056;-71
2022/01/26 12:13:26;;;;;;;5.82;3.72;;;21.90;52.70;;;;;;5064015;28;20043;-71
2022/01/26 12:16:12;;;;;;;3.33;2.90;;;21.90;52.60;;;;;;5063465;28;20049;-71
2022/01/26 12:18:55;;;;;;;7.22;4.35;;;21.90;52.90;;;;;;5054666;28;20037;-72
2022/01/26 12:35:49;;;;;;;5.90;3.80;;;22.10;52.60;;;;;;5049958;28;20068;-72
2022/01/26 12:38:42;;;;;;;4.95;3.85;;;22.20;52.40;;;;;;5049020;28;20042;-72
2022/01/26 12:43:53;;;;;;;5.18;4.28;;;22.20;52.80;;;;;;5047890;28;20053;-72
2022/01/26 12:46:32;;;;;;;4.95;3.88;;;22.40;56.50;;;;;;5051450;28;20038;-72
2022/01/26 12:49:10;;;;;;;5.35;3.20;;;23.40;51.20;;;;;;5047340;28;20044;-73
2022/01/26 12:51:43;;;;;;;3.47;2.88;;;23.90;48.30;;;;;;5053587;28;20052;-73
2022/01/26 12:54:10;;;;;;;5.82;3.85;;;24.00;48.60;;;;;;5049185;28;20037;-73
2022/01/26 12:56:38;;;;;;;3.42;3.08;;;24.30;49.20;;;;;;5035693;28;20055;-73
2022/01/26 12:59:20;;;;;;;3.90;3.08;;;24.50;47.20;;;;;;5053790;28;20068;-72
2022/01/26 13:01:51;;;;;;;4.83;3.80;;;24.60;47.20;;;;;;5047532;28;20067;-72
2022/01/26 13:04:17;;;;;;;5.43;2.80;;;24.50;46.70;;;;;;5037268;28;20069;-71
2022/01/26 13:06:52;;;;;;;4.70;3.60;;;24.30;46.90;;;;;;5054887;28;20044;-71
2022/01/26 13:09:21;;;;;;;5.30;3.47;;;24.20;47.10;;;;;;5055016;28;20155;-71
2022/01/26 13:11:52;;;;;;;4.03;3.20;;;24.10;47.20;;;;;;5041607;28;20033;-71
2022/01/26 13:14:38;;;;;;;4.05;3.55;;;24.00;47.40;;;;;;5060606;28;20058;-73
2022/01/26 13:25:12;;;;;;;3.92;2.92;;;23.20;46.20;;;;;;5050237;28;20048;-72
2022/01/26 13:51:39;;;;;;;6.65;4.07;;;21.60;53.00;;;;;;5046270;28;20030;-72
2022/01/26 13:57:38;;;;;;;6.03;3.83;;;21.60;52.80;;;;;;5007820;28;20081;-72
2022/01/26 13:59:58;;;;;;;5.78;3.65;;;21.40;53.90;;;;;;5057679;28;20037;-72
2022/01/26 14:02:28;;;;;;;4.18;3.47;;;21.50;53.10;;;;;;5053182;28;20077;-72
2022/01/26 14:04:54;;;;;;;5.05;2.45;;;21.40;53.30;;;;;;5057272;28;20084;-72
2022/01/26 14:07:21;;;;;;;5.18;2.72;;;21.40;52.40;;;;;;5056430;28;20033;-72
2022/01/26 14:09:47;;;;;;;4.35;2.85;;;21.40;52.20;;;;;;5056702;28;20060;-72
2022/01/26 14:12:16;;;;;;;6.60;3.53;;;21.30;52.60;;;;;;5056586;28;20041;-72
2022/01/26 14:14:45;;;;;;;6.55;3.50;;;21.20;54.30;;;;;;5056678;28;20025;-73
2022/01/26 14:17:16;;;;;;;4.72;3.17;;;21.30;54.40;;;;;;5056084;28;20033;-72
2022/01/26 14:27:49;;;;;;;6.07;3.55;;;21.20;54.10;;;;;;5054256;28;20081;-73
2022/01/26 14:35:49;;;;;;;9.68;3.42;;;21.50;44.70;;;;;;5037814;28;20061;-72
2022/01/26 15:35:21;;;;;;;8.85;4.68;;;22.20;47.20;;;;;;5042321;28;20037;-71
2022/01/26 15:51:15;;;;;;;9.52;4.72;;;21.80;48.10;;;;;;5045058;28;20058;-71
2022/01/26 16:35:08;;;;;;;9.75;5.55;;;21.30;54.50;;;;;;5046240;28;20049;-70
2022/01/26 16:39:28;;;;;;;9.27;6.03;;;21.20;55.10;;;;;;5044915;28;20043;-72
2022/01/26 18:46:32;;;;;;;;;;;21.50;61.10;;;;;;5057011;28;20042;-76
2022/01/26 18:49:18;;;;;;;18.38;8.88;;;21.50;60.90;;;;;;5049793;28;19909;-75
2022/01/26 18:51:52;;;;;;;9.15;4.70;;;21.50;61.20;;;;;;5056581;28;20103;-75
2022/01/26 18:54:21;;;;;;;15.82;8.32;;;21.60;63.50;;;;;;5052933;28;20046;-75
2022/01/26 18:56:48;;;;;;;13.80;7.63;;;21.90;62.20;;;;;;5042104;28;20049;-74
2022/01/26 18:59:22;;;;;;;7.47;4.57;;;22.20;61.10;;;;;;5030101;28;20034;-73
2022/01/26 19:01:51;;;;;;;8.43;5.18;;;22.20;59.80;;;;;;5056857;28;20053;-76
2022/01/26 19:04:23;;;;;;;9.05;5.00;;;22.50;58.50;;;;;;5056622;28;20045;-76
2022/01/26 19:06:52;;;;;;;5.60;3.88;;;22.50;56.70;;;;;;5056566;28;20050;-76
2022/01/26 19:09:25;;;;;;;7.45;4.18;;;22.60;56.10;;;;;;5056301;28;20056;-76
2022/01/26 19:11:51;;;;;;;6.78;4.28;;;22.70;55.90;;;;;;5056653;28;20041;-75
2022/01/26 19:14:22;;;;;;;7.78;4.97;;;22.70;55.60;;;;;;5056366;28;20052;-75
2022/01/26 19:16:55;;;;;;;9.90;5.95;;;22.80;55.10;;;;;;5055995;28;20071;-76
2022/01/26 19:27:00;;;;;;;11.88;7.35;;;22.90;50.90;;;;;;5062727;28;20043;-76
2022/01/26 19:51:15;;;;;;;13.20;7.60;;;21.90;57.00;;;;;;5055162;28;20037;-75
2022/01/26 19:53:42;;;;;;;11.60;7.93;;;21.90;57.00;;;;;;5047881;28;20041;-76
2022/01/26 19:56:09;;;;;;;10.55;7.88;;;21.90;57.00;;;;;;5050865;28;20092;-75
2022/01/26 19:58:35;;;;;;;12.50;8.32;;;21.80;57.10;;;;;;5058930;28;20034;-75
2022/01/26 20:01:01;;;;;;;13.23;8.70;;;21.70;57.10;;;;;;5061212;28;20056;-74
2022/01/26 20:03:28;;;;;;;11.77;7.32;;;21.70;57.10;;;;;;5059372;28;20064;-76
2022/01/26 20:05:56;;;;;;;11.10;7.40;;;21.70;57.20;;;;;;5057609;28;20047;-76
2022/01/26 20:08:41;;;;;;;12.73;7.65;;;21.80;57.10;;;;;;5057476;28;20037;-75
2022/01/26 20:11:12;;;;;;;12.07;8.15;;;21.60;57.00;;;;;;5055858;28;20052;-75
2022/01/26 20:13:41;;;;;;;16.98;10.57;;;21.80;56.90;;;;;;5059055;28;20048;-75
2022/01/26 20:16:10;;;;;;;12.82;8.20;;;21.80;56.70;;;;;;5056101;28;20043;-76
2022/01/26 20:18:37;;;;;;;9.32;6.50;;;21.70;56.70;;;;;;5037512;28;20097;-75
2022/01/26 20:21:04;;;;;;;8.93;6.25;;;21.80;56.80;;;;;;5054869;28;20049;-75